Time;durP1;ratioP1;P1;durP2;ratioP2;P2;SDS_P1;SDS_P2;PMS_P1;PMS_P2;Temp;Humidity;BMP_temperature;BMP_pressure;BME280_temperature;BME280_humidity;BME280_pressure;Samples;Min_cycle;Max_cycle;Signal;HPM_P1;HPM_P2
2022/02/15 00:01:37;;;;;;;;;;;179.40;2252.80;;;;;;5113460;28;20283;-78
2022/02/15 00:04:03;;;;;;;;;;;179.40;2252.80;;;;;;5113287;28;19908;-77
2022/02/15 00:06:28;;;;;;;;;;;179.30;2252.80;;;;;;5094976;28;20348;-76
2022/02/15 00:08:54;;;;;;;;;;;179.40;2252.80;;;;;;5094798;28;19927;-80
2022/02/15 00:11:19;;;;;;;;;;;179.40;2252.80;;;;;;5116935;28;20356;-79
2022/02/15 00:13:45;;;;;;;;;;;179.40;2252.80;;;;;;5098505;28;19919;-75
2022/02/15 00:16:11;;;;;;;;;;;179.40;2252.80;;;;;;5098495;28;19915;-79
2022/02/15 00:18:36;;;;;;;;;;;179.40;2252.80;;;;;;5098176;28;20284;-76
2022/02/15 00:21:02;;;;;;;;;;;179.40;2252.80;;;;;;5098275;28;20288;-80
2022/02/15 00:23:28;;;;;;;;;;;179.40;2252.80;;;;;;5097909;28;19916;-80
2022/02/15 00:25:53;;;;;;;;;;;179.40;2252.80;;;;;;5099144;28;19919;-80
2022/02/15 00:28:19;;;;;;;;;;;179.50;2252.80;;;;;;5097437;28;20321;-76
2022/02/15 00:30:45;;;;;;;;;;;179.50;2252.80;;;;;;5109445;28;19916;-80
2022/02/15 00:33:10;;;;;;;;;;;179.40;2252.80;;;;;;5116957;28;20367;-81
2022/02/15 00:35:36;;;;;;;;;;;179.40;2252.80;;;;;;5098483;28;19959;-81
2022/02/15 00:38:01;;;;;;;;;;;179.40;2252.80;;;;;;5116561;28;19961;-76
2022/02/15 00:40:27;;;;;;;;;;;179.40;2252.80;;;;;;5098250;28;20375;-79
2022/02/15 00:42:52;;;;;;;;;;;179.40;2252.80;;;;;;5098395;28;19908;-80
2022/02/15 00:45:18;;;;;;;;;;;179.50;2252.80;;;;;;5116496;28;20028;-76
2022/02/15 00:47:44;;;;;;;;;;;179.50;2252.80;;;;;;5116646;28;20355;-81
2022/02/15 00:50:10;;;;;;;;;;;179.60;2252.80;;;;;;5116231;28;19919;-76
2022/02/15 00:52:36;;;;;;;;;;;179.60;2252.80;;;;;;5098190;28;19908;-81
2022/02/15 00:55:02;;;;;;;;;;;179.60;2252.80;;;;;;5098139;28;19923;-80
2022/02/15 00:57:27;;;;;;;;;;;179.60;2252.80;;;;;;5098289;28;20384;-80
2022/02/15 00:59:53;;;;;;;;;;;179.60;2252.80;;;;;;5097882;28;19911;-77
2022/02/15 01:02:19;;;;;;;;;;;179.70;2252.80;;;;;;5098019;28;19916;-81
2022/02/15 01:04:44;;;;;;;;;;;179.70;2252.80;;;;;;5097973;28;19919;-76
2022/02/15 01:07:10;;;;;;;;;;;179.70;2252.80;;;;;;5115317;28;19977;-76
2022/02/15 01:09:35;;;;;;;;;;;179.70;2252.80;;;;;;5097431;28;20411;-80
2022/02/15 01:12:01;;;;;;;;;;;179.70;2252.80;;;;;;5097471;28;19956;-78
2022/02/15 01:14:27;;;;;;;;;;;179.50;2252.80;;;;;;5097681;28;19920;-76
2022/02/15 01:16:52;;;;;;;;;;;179.50;2252.80;;;;;;5097050;28;19916;-80
2022/02/15 01:19:18;;;;;;;;;;;179.40;2252.80;;;;;;5097680;28;19958;-80
2022/02/15 01:21:44;;;;;;;;;;;179.40;2252.80;;;;;;5114466;28;19930;-77
2022/02/15 01:24:10;;;;;;;;;;;179.40;2252.80;;;;;;5115563;28;19915;-80
2022/02/15 01:26:35;;;;;;;;;;;179.60;2252.80;;;;;;5097378;28;19914;-81
2022/02/15 01:29:01;;;;;;;;;;;179.30;2252.80;;;;;;5097089;28;20271;-78
2022/02/15 01:31:26;;;;;;;;;;;179.40;2252.80;;;;;;5115326;28;19964;-79
2022/02/15 01:33:52;;;;;;;;;;;179.40;2252.80;;;;;;5115036;28;19908;-76
2022/02/15 01:36:18;;;;;;;;;;;179.40;2252.80;;;;;;5115224;28;19923;-76
2022/02/15 01:38:43;;;;;;;;;;;179.40;2252.80;;;;;;5114887;28;19908;-81
2022/02/15 01:41:09;;;;;;;;;;;179.40;2252.80;;;;;;5096729;28;19908;-80
2022/02/15 01:43:39;;;;;;;;;;;179.40;2252.80;;;;;;5114940;28;19907;-80
2022/02/15 01:46:05;;;;;;;;;;;179.40;2252.80;;;;;;5114935;28;19912;-76
2022/02/15 01:48:31;;;;;;;;;;;179.40;2252.80;;;;;;5096617;28;19912;-82
2022/02/15 01:50:58;;;;;;;;;;;179.40;2252.80;;;;;;5115152;28;19912;-77
2022/02/15 01:53:24;;;;;;;;;;;179.40;2252.80;;;;;;5096625;28;19930;-76
2022/02/15 01:55:50;;;;;;;;;;;179.40;2252.80;;;;;;5096461;28;20014;-77
2022/02/15 01:58:17;;;;;;;;;;;179.40;2252.80;;;;;;5095470;28;19995;-80
2022/02/15 02:00:42;;;;;;;;;;;179.50;2252.80;;;;;;5093894;28;19916;-80
2022/02/15 02:03:08;;;;;;;;;;;179.50;2252.80;;;;;;5089772;28;20316;-76
2022/02/15 02:05:49;;;;;;;;;;;179.50;2252.80;;;;;;5099548;28;19908;-81
2022/02/15 02:08:15;;;;;;;;;;;179.50;2252.80;;;;;;5096404;28;19920;-75
2022/02/15 02:10:41;;;;;;;;;;;179.40;2252.80;;;;;;5114417;28;19911;-79
2022/02/15 02:13:06;;;;;;;;;;;179.50;2252.80;;;;;;5093752;28;20002;-77
2022/02/15 02:15:32;;;;;;;;;;;179.40;2252.80;;;;;;5113835;28;20034;-81
2022/02/15 02:17:58;;;;;;;;;;;179.40;2252.80;;;;;;5096192;28;19908;-79
2022/02/15 02:20:24;;;;;;;;;;;179.40;2252.80;;;;;;5096067;28;20337;-76
2022/02/15 02:22:49;;;;;;;;;;;179.40;2252.80;;;;;;5114105;28;20020;-81
2022/02/15 02:25:17;;;;;;;;;;;179.30;2252.80;;;;;;5095963;28;19914;-81
2022/02/15 02:27:43;;;;;;;;;;;179.40;2252.80;;;;;;5092746;28;19908;-80
2022/02/15 02:30:09;;;;;;;;;;;179.40;2252.80;;;;;;5114488;28;20245;-76
2022/02/15 02:32:35;;;;;;;;;;;179.30;2252.80;;;;;;5095443;28;19938;-80
2022/02/15 02:35:02;;;;;;;;;;;179.30;2252.80;;;;;;5113984;28;20363;-80
2022/02/15 02:37:28;;;;;;;;;;;179.30;2252.80;;;;;;5095688;28;19908;-76
2022/02/15 02:39:54;;;;;;;;;;;179.20;2252.80;;;;;;5095503;28;20276;-75
2022/02/15 02:42:21;;;;;;;;;;;179.20;2252.80;;;;;;5114075;28;19990;-76
2022/02/15 02:44:48;;;;;;;;;;;179.20;2252.80;;;;;;5113872;28;20352;-77
2022/02/15 02:47:13;;;;;;;;;;;179.20;2252.80;;;;;;5095103;28;19911;-76
2022/02/15 02:49:39;;;;;;;;;;;179.20;2252.80;;;;;;5113575;28;19931;-76
2022/02/15 02:52:05;;;;;;;;;;;179.30;2252.80;;;;;;5095770;28;20271;-77
2022/02/15 02:54:31;;;;;;;;;;;179.30;2252.80;;;;;;5095022;28;19919;-79
2022/02/15 02:56:56;;;;;;;;;;;179.20;2252.80;;;;;;5095717;28;19912;-77
2022/02/15 02:59:22;;;;;;;;;;;179.20;2252.80;;;;;;5101911;28;19919;-76
2022/02/15 03:01:48;;;;;;;;;;;179.20;2252.80;;;;;;5095413;28;20348;-80
2022/02/15 03:04:14;;;;;;;;;;;154.50;2252.80;;;;;;5095236;28;19912;-76
2022/02/15 03:06:39;;;;;;;;;;;154.50;2252.80;;;;;;5113127;28;20012;-81
2022/02/15 03:09:05;;;;;;;;;;;154.50;2252.80;;;;;;5113528;28;19912;-76
2022/02/15 03:11:32;;;;;;;;;;;179.20;2252.80;;;;;;5113314;28;19914;-76
2022/02/15 03:13:58;;;;;;;;;;;179.20;2252.80;;;;;;5095402;28;20244;-76
2022/02/15 03:16:24;;;;;;;;;;;179.20;2252.80;;;;;;5077994;28;19932;-79
2022/02/15 03:18:49;;;;;;;;;;;179.20;2252.80;;;;;;5095498;28;19977;-79
2022/02/15 03:21:15;;;;;;;;;;;154.50;2252.80;;;;;;5094948;28;19908;-77
2022/02/15 03:23:41;;;;;;;;;;;179.30;2252.80;;;;;;5095103;28;19908;-76
2022/02/15 03:26:07;;;;;;;;;;;179.30;2252.80;;;;;;5113139;28;19919;-77
2022/02/15 03:28:33;;;;;;;;;;;179.30;2252.80;;;;;;5092410;28;19915;-77
2022/02/15 03:30:58;;;;;;;;;;;179.30;2252.80;;;;;;5092232;28;20360;-76
2022/02/15 03:33:24;;;;;;;;;;;179.30;2252.80;;;;;;5092355;28;19916;-76
2022/02/15 03:35:49;;;;;;;;;;;179.30;2252.80;;;;;;5091733;28;20321;-80
2022/02/15 03:38:15;;;;;;;;;;;179.20;2252.80;;;;;;5088460;28;19908;-80
2022/02/15 03:43:25;;;;;;;;;;;179.20;2252.80;;;;;;5090549;28;19916;-78
2022/02/15 03:45:50;;;;;;;;;;;154.50;2252.80;;;;;;5128464;27;19908;-80
2022/02/15 03:48:16;;;;;;;;;;;179.20;2252.80;;;;;;5096482;28;20403;-80
2022/02/15 03:50:42;;;;;;;;;;;179.20;2252.80;;;;;;5096480;28;19908;-81
2022/02/15 03:53:07;;;;;;;;;;;154.50;2252.80;;;;;;5096782;28;19999;-76
2022/02/15 03:55:33;;;;;;;;;;;154.50;2252.80;;;;;;5096155;28;19920;-81
2022/02/15 03:57:59;;;;;;;;;;;154.50;2252.80;;;;;;5089319;28;19915;-80
2022/02/15 04:00:24;;;;;;;;;;;154.50;2252.80;;;;;;5114935;28;19981;-76
2022/02/15 04:02:50;;;;;;;;;;;154.50;2252.80;;;;;;5095925;28;19916;-76
2022/02/15 04:05:15;;;;;;;;;;;154.50;2252.80;;;;;;5113691;28;19922;-75
2022/02/15 04:07:41;;;;;;;;;;;154.40;2252.80;;;;;;5116788;28;20322;-80
2022/02/15 04:10:07;;;;;;;;;;;154.40;2252.80;;;;;;5098534;28;19958;-77
2022/02/15 04:12:33;;;;;;;;;;;154.30;2252.80;;;;;;5117045;28;19908;-76
2022/02/15 04:14:58;;;;;;;;;;;154.30;2252.80;;;;;;5098389;28;20344;-79
2022/02/15 04:17:24;;;;;;;;;;;154.30;2252.80;;;;;;5098568;28;19907;-80
2022/02/15 04:19:49;;;;;;;;;;;154.30;2252.80;;;;;;5116659;28;19935;-80
2022/02/15 04:22:15;;;;;;;;;;;154.30;2252.80;;;;;;5098388;28;19907;-80
2022/02/15 04:24:40;;;;;;;;;;;154.30;2252.80;;;;;;5098610;28;19908;-80
2022/02/15 04:27:06;;;;;;;;;;;154.30;2252.80;;;;;;5098136;28;20381;-81
2022/02/15 04:29:32;;;;;;;;;;;154.30;2252.80;;;;;;5116758;28;19919;-80
2022/02/15 04:31:58;;;;;;;;;;;154.40;2252.80;;;;;;5098289;28;19935;-75
2022/02/15 04:34:23;;;;;;;;;;;154.50;2252.80;;;;;;5098268;28;19914;-80
2022/02/15 04:36:49;;;;;;;;;;;154.50;2252.80;;;;;;5116317;28;19919;-80
2022/02/15 04:39:14;;;;;;;;;;;154.50;2252.80;;;;;;5097846;28;20376;-77
2022/02/15 04:41:40;;;;;;;;;;;154.50;2252.80;;;;;;5097819;28;19916;-79
2022/02/15 04:44:06;;;;;;;;;;;154.50;2252.80;;;;;;5095247;28;19976;-76
2022/02/15 04:46:32;;;;;;;;;;;154.50;2252.80;;;;;;5110386;28;20360;-80
2022/02/15 04:48:58;;;;;;;;;;;154.50;2252.80;;;;;;5097405;28;19908;-76
2022/02/15 04:51:23;;;;;;;;;;;154.50;2252.80;;;;;;5095436;28;19908;-80
2022/02/15 04:53:52;;;;;;;;;;;179.20;2252.80;;;;;;5112811;28;19941;-76
2022/02/15 04:56:18;;;;;;;;;;;154.50;2252.80;;;;;;5096482;28;19939;-76
2022/02/15 04:58:43;;;;;;;;;;;154.50;2252.80;;;;;;5115618;28;20364;-78
2022/02/15 05:01:13;;;;;;;;;;;154.50;2252.80;;;;;;5097925;28;20008;-80
2022/02/15 05:03:39;;;;;;;;;;;154.50;2252.80;;;;;;5097574;28;19915;-79
2022/02/15 05:06:05;;;;;;;;;;;154.50;2252.80;;;;;;5096796;28;19908;-80
2022/02/15 05:08:30;;;;;;;;;;;154.50;2252.80;;;;;;5097318;28;20010;-80
2022/02/15 05:10:56;;;;;;;;;;;154.40;2252.80;;;;;;5097692;28;20410;-80
2022/02/15 05:13:22;;;;;;;;;;;154.40;2252.80;;;;;;5097657;28;19907;-80
2022/02/15 05:15:48;;;;;;;;;;;154.40;2252.80;;;;;;5115423;28;20034;-79
2022/02/15 05:18:13;;;;;;;;;;;154.40;2252.80;;;;;;5115824;28;20008;-77
2022/02/15 05:20:39;;;;;;;;;;;154.40;2252.80;;;;;;5115443;28;19918;-80
2022/02/15 05:23:05;;;;;;;;;;;154.40;2252.80;;;;;;5115677;28;19908;-80
2022/02/15 05:25:30;;;;;;;;;;;154.30;2252.80;;;;;;5096956;28;19907;-76
2022/02/15 05:27:58;;;;;;;;;;;154.30;2252.80;;;;;;5115581;28;19931;-81
2022/02/15 05:30:24;;;;;;;;;;;154.20;2252.80;;;;;;5096858;28;19907;-80
2022/02/15 05:32:50;;;;;;;;;;;154.10;2252.80;;;;;;5115154;28;19915;-80
2022/02/15 05:35:15;;;;;;;;;;;154.20;2252.80;;;;;;5096603;28;19912;-77
2022/02/15 05:37:41;;;;;;;;;;;154.20;2252.80;;;;;;5096469;28;20395;-80
2022/02/15 05:40:07;;;;;;;;;;;154.20;2252.80;;;;;;5096796;28;19912;-77
2022/02/15 05:42:33;;;;;;;;;;;154.20;2252.80;;;;;;5114954;28;19912;-80
2022/02/15 05:44:59;;;;;;;;;;;154.40;2252.80;;;;;;5114875;28;19915;-76
2022/02/15 05:47:24;;;;;;;;;;;154.40;2252.80;;;;;;5096838;28;20010;-80
2022/02/15 05:52:34;;;;;;;;;;;154.20;2252.80;;;;;;5112782;28;19915;-80
2022/02/15 05:55:00;;;;;;;;;;;154.10;2252.80;;;;;;5096234;28;19916;-76
2022/02/15 05:57:25;;;;;;;;;;;154.10;2252.80;;;;;;5096424;28;20356;-81
2022/02/15 05:59:59;;;;;;;;;;;154.00;2252.80;;;;;;5096638;28;19908;-81
2022/02/15 06:02:25;;;;;;;;;;;154.00;2252.80;;;;;;5114548;28;20287;-77
2022/02/15 06:04:52;;;;;;;;;;;154.00;2252.80;;;;;;5114491;28;19908;-81
2022/02/15 06:07:17;;;;;;;;;;;154.10;2252.80;;;;;;5114181;28;19927;-80
2022/02/15 06:09:43;;;;;;;;;;;154.00;2252.80;;;;;;5096168;28;19916;-81
2022/02/15 06:12:09;;;;;;;;;;;154.00;2252.80;;;;;;5096433;28;20003;-81
2022/02/15 06:14:34;;;;;;;;;;;154.20;2252.80;;;;;;5114077;28;19908;-80
2022/02/15 06:17:00;;;;;;;;;;;154.10;2252.80;;;;;;5096169;28;19912;-77
2022/02/15 06:19:27;;;;;;;;;;;154.20;2252.80;;;;;;5114341;28;20348;-80
2022/02/15 06:21:52;;;;;;;;;;;154.10;2252.80;;;;;;5096219;28;19960;-78
2022/02/15 06:24:20;;;;;;;;;;;154.20;2252.80;;;;;;5114364;28;20313;-76
2022/02/15 06:26:46;;;;;;;;;;;154.30;2252.80;;;;;;5095810;28;19908;-79
2022/02/15 06:29:11;;;;;;;;;;;154.30;2252.80;;;;;;5096003;28;19937;-80
2022/02/15 06:31:37;;;;;;;;;;;154.40;2252.80;;;;;;5095975;28;19912;-76
2022/02/15 06:34:03;;;;;;;;;;;154.30;2252.80;;;;;;5095679;28;19908;-76
2022/02/15 06:36:28;;;;;;;;;;;154.50;2252.80;;;;;;5095624;28;19969;-76
2022/02/15 06:38:54;;;;;;;;;;;154.50;2252.80;;;;;;5114221;28;20272;-80
2022/02/15 06:41:19;;;;;;;;;;;154.50;2252.80;;;;;;5113510;28;19907;-75
2022/02/15 06:43:45;;;;;;;;;;;179.20;2252.80;;;;;;5095324;28;19964;-80
2022/02/15 06:46:10;;;;;;;;;;;179.20;2252.80;;;;;;5113950;28;19931;-78
2022/02/15 06:48:36;;;;;;;;;;;179.20;2252.80;;;;;;5095660;28;19912;-79
2022/02/15 06:51:02;;;;;;;;;;;179.20;2252.80;;;;;;5095670;28;19939;-79
2022/02/15 06:53:27;;;;;;;;;;;179.30;2252.80;;;;;;5095613;28;19911;-78
2022/02/15 06:55:53;;;;;;;;;;;179.30;2252.80;;;;;;5113681;28;19916;-82
2022/02/15 06:58:18;;;;;;;;;;;179.40;2252.80;;;;;;5095303;28;20414;-82
2022/02/15 07:00:44;;;;;;;;;;;179.50;2252.80;;;;;;5113619;28;19935;-77
2022/02/15 07:03:09;;;;;;;;;;;179.60;2252.80;;;;;;5113473;28;19923;-77
2022/02/15 07:05:35;;;;;;;;;;;179.60;2252.80;;;;;;5092592;28;19911;-76
2022/02/15 07:08:00;;;;;;;;;;;179.70;2252.80;;;;;;5095022;28;19920;-81
2022/02/15 07:10:26;;;;;;;;;;;179.80;2252.80;;;;;;5095299;28;19915;-76
2022/02/15 07:12:51;;;;;;;;;;;179.90;2252.80;;;;;;5095535;28;19980;-84
2022/02/15 07:15:17;;;;;;;;;;;180.00;2252.80;;;;;;5113227;28;20007;-83
2022/02/15 07:17:43;;;;;;;;;;;180.10;2252.80;;;;;;5112689;28;20321;-76
2022/02/15 07:20:09;;;;;;;;;;;204.80;2252.80;;;;;;5112462;28;19907;-76
2022/02/15 07:22:35;;;;;;;;;;;204.80;2252.80;;;;;;5113729;28;20377;-81
2022/02/15 07:25:00;;;;;;;;;;;204.90;2252.80;;;;;;5113296;28;19915;-77
2022/02/15 07:27:29;;;;;;;;;;;204.90;2252.80;;;;;;5112959;28;19918;-83
2022/02/15 07:29:55;;;;;;;;;;;204.90;2252.80;;;;;;5111084;28;20007;-78
2022/02/15 07:32:24;;;;;;;;;;;204.90;2252.80;;;;;;5113048;28;19998;-80
2022/02/15 07:34:53;;;;;;;;;;;205.00;2252.80;;;;;;5113051;28;19916;-80
2022/02/15 07:37:19;;;;;;;;;;;205.00;2252.80;;;;;;5112980;28;20011;-81
2022/02/15 07:39:45;;;;;;;;;;;205.10;2252.80;;;;;;5094768;28;20007;-77
2022/02/15 07:42:11;;;;;;;;;;;205.20;2252.80;;;;;;5094832;28;19968;-76
2022/02/15 07:44:36;;;;;;;;;;;205.20;2252.80;;;;;;5113047;28;19918;-82
2022/02/15 07:47:02;;;;;;;;;;;205.20;2252.80;;;;;;5113185;28;19915;-81
2022/02/15 07:49:29;;;;;;;;;;;205.30;2252.80;;;;;;5113100;28;19912;-75
2022/02/15 07:51:54;;;;;;;;;;;205.40;2252.80;;;;;;5094425;28;19911;-79
2022/02/15 07:54:20;;;;;;;;;;;205.40;2252.80;;;;;;5094366;28;19920;-77
2022/02/15 07:56:46;;;;;;;;;;;205.50;2252.80;;;;;;5094920;28;19908;-81
2022/02/15 07:59:12;;;;;;;;;;;205.60;2252.80;;;;;;5113062;28;19918;-76
2022/02/15 08:01:37;;;;;;;;;;;205.70;2252.80;;;;;;5094260;28;20006;-78
2022/02/15 08:04:03;;;;;;;;;;;205.70;2252.80;;;;;;5094689;28;19914;-76
2022/02/15 08:06:29;;;;;;;;;;;230.40;2252.80;;;;;;5094449;28;19908;-82
2022/02/15 08:08:55;;;;;;;;;;;230.50;2252.80;;;;;;5094266;28;19920;-77
2022/02/15 08:11:21;;;;;;;;;;;230.60;2252.80;;;;;;5094389;28;19968;-77
2022/02/15 08:13:49;;;;;;;;;;;230.70;2252.80;;;;;;5112643;28;19935;-80
2022/02/15 08:16:15;;;;;;;;;;;230.90;2252.80;;;;;;5110381;28;19916;-77
2022/02/15 08:18:41;;;;;;;;;;;231.00;2252.80;;;;;;5112853;28;19968;-76
2022/02/15 08:21:08;;;;;;;;;;;231.00;2252.80;;;;;;5095204;28;19955;-83
2022/02/15 08:23:34;;;;;;;;;;;231.20;2252.80;;;;;;5113223;28;19912;-76
2022/02/15 08:25:59;;;;;;;;;;;231.30;2252.80;;;;;;5094896;28;19908;-78
2022/02/15 08:28:25;;;;;;;;;;;231.20;2252.80;;;;;;5094283;28;20399;-79
2022/02/15 08:30:51;;;;;;;;;;;231.30;2252.80;;;;;;5095213;28;19922;-81
2022/02/15 08:33:16;;;;;;;;;;;256.10;2252.80;;;;;;5098076;28;19964;-80
2022/02/15 08:35:42;;;;;;;;;;;256.20;2252.80;;;;;;5097937;28;19922;-76
2022/02/15 08:38:08;;;;;;;;;;;256.20;2252.80;;;;;;5116224;28;19915;-77
2022/02/15 08:40:33;;;;;;;;;;;256.20;2252.80;;;;;;5116539;28;19951;-76
2022/02/15 08:42:59;;;;;;;;;;;256.20;2252.80;;;;;;5098463;28;20381;-82
2022/02/15 08:45:24;;;;;;;;;;;256.40;2252.80;;;;;;5098208;28;20343;-76
2022/02/15 08:47:50;;;;;;;;;;;256.40;2252.80;;;;;;5098264;28;19939;-82
2022/02/15 08:50:16;;;;;;;;;;;256.40;2252.80;;;;;;5116383;28;19914;-79
2022/02/15 08:52:41;;;;;;;;;;;256.50;2252.80;;;;;;5116334;28;19919;-76
2022/02/15 08:55:08;;;;;;;;;;;256.70;2252.80;;;;;;5116272;28;19920;-76
2022/02/15 08:57:34;;;;;;;;;;;256.90;2252.80;;;;;;5098278;28;19958;-85
2022/02/15 08:59:59;;;;;;;;;;;281.60;2278.40;;;;;;5098057;28;19992;-81
2022/02/15 09:02:25;;;;;;;;;;;281.80;2278.40;;;;;;5116451;28;20007;-84
2022/02/15 09:04:51;;;;;;;;;;;281.90;2278.40;;;;;;5116000;28;19915;-77
2022/02/15 09:07:17;;;;;;;;;;;281.90;2278.40;;;;;;5116291;28;19924;-80
2022/02/15 09:09:44;;;;;;;;;;;281.60;2278.40;;;;;;5115391;28;19918;-79
2022/02/15 09:12:09;;;;;;;;;;;281.70;2278.40;;;;;;5097454;28;19915;-79
2022/02/15 09:14:35;;;;;;;;;;;281.80;2278.40;;;;;;5097686;28;19908;-77
2022/02/15 09:17:01;;;;;;;;;;;282.00;2278.40;;;;;;5115865;28;19957;-81
2022/02/15 09:19:27;;;;;;;;;;;282.20;2278.40;;;;;;5115792;28;19912;-77
2022/02/15 09:21:53;;;;;;;;;;;282.40;2278.40;;;;;;5097344;28;20344;-76
2022/02/15 09:24:19;;;;;;;;;;;307.20;2304.00;;;;;;5115820;28;20268;-80
2022/02/15 09:26:45;;;;;;;;;;;307.20;2278.40;;;;;;5115531;28;19908;-81
2022/02/15 09:29:11;;;;;;;;;;;307.40;2252.80;;;;;;5097306;28;20364;-78
2022/02/15 09:31:39;;;;;;;;;;;307.40;2252.80;;;;;;5115706;28;19919;-77
2022/02/15 09:34:06;;;;;;;;;;;307.50;2227.20;;;;;;5115661;28;19944;-76
2022/02/15 09:36:32;;;;;;;;;;;307.70;2227.20;;;;;;5096968;28;19916;-81
2022/02/15 09:38:57;;;;;;;;;;;307.70;2201.60;;;;;;5096996;28;19998;-86
2022/02/15 09:41:23;;;;;;;;;;;307.80;2176.00;;;;;;5097096;28;19960;-87
2022/02/15 09:43:49;;;;;;;;;;;308.00;2176.00;;;;;;5096206;28;19915;-76
2022/02/15 09:46:15;;;;;;;;;;;308.10;2201.60;;;;;;5097692;28;19912;-85
2022/02/15 09:48:43;;;;;;;;;;;332.80;2176.00;;;;;;5115458;28;19914;-87
2022/02/15 09:51:09;;;;;;;;;;;332.90;2176.00;;;;;;5115382;28;19915;-78
2022/02/15 09:53:35;;;;;;;;;;;333.10;2176.00;;;;;;5115009;28;19968;-76
2022/02/15 09:56:01;;;;;;;;;;;333.10;2124.80;;;;;;5097148;28;19923;-76
2022/02/15 09:58:26;;;;;;;;;;;333.20;2124.80;;;;;;5097392;28;19920;-77
2022/02/15 10:00:53;;;;;;;;;;;333.30;2099.20;;;;;;5114701;28;19916;-77
2022/02/15 10:03:19;;;;;;;;;;;333.40;2099.20;;;;;;5096619;28;19908;-80
2022/02/15 10:05:48;;;;;;;;;;;333.40;2073.60;;;;;;5114258;28;19914;-78
2022/02/15 10:08:13;;;;;;;;;;;333.50;2073.60;;;;;;5095976;28;19931;-86
2022/02/15 10:10:39;;;;;;;;;;;333.60;2048.00;;;;;;5096138;28;19916;-83
2022/02/15 10:13:05;;;;;;;;;;;333.70;2073.60;;;;;;5096808;28;20421;-80
2022/02/15 10:15:34;;;;;;;;;;;358.60;2022.40;;;;;;5114658;28;19915;-78
2022/02/15 10:18:22;;;;;;;;;;;358.70;2022.40;;;;;;5114947;28;19908;-81
2022/02/15 10:20:52;;;;;;;;;;;358.80;2022.40;;;;;;5015795;28;19909;-83
2022/02/15 10:23:18;;;;;;;;;;;359.00;1996.80;;;;;;5015497;28;19920;-78
2022/02/15 10:25:44;;;;;;;;;;;359.30;1894.40;;;;;;5032174;28;19992;-78
2022/02/15 10:28:10;;;;;;;;;;;384.00;1894.40;;;;;;5031908;28;19955;-83
2022/02/15 10:30:41;;;;;;;;;;;384.10;1894.40;;;;;;5015701;28;19920;-83
2022/02/15 10:33:06;;;;;;;;;;;384.20;1894.40;;;;;;5031647;28;19913;-80
2022/02/15 10:35:32;;;;;;;;;;;384.20;1894.40;;;;;;5015387;28;20320;-84
2022/02/15 10:37:57;;;;;;;;;;;384.30;1868.80;;;;;;5015675;28;19914;-82
2022/02/15 10:40:23;;;;;;;;;;;384.40;1843.20;;;;;;5015412;28;20400;-77
2022/02/15 10:42:52;;;;;;;;;;;384.60;1843.20;;;;;;5015683;28;19920;-85
2022/02/15 10:45:18;;;;;;;;;;;384.90;1817.60;;;;;;5031715;28;19932;-78
2022/02/15 10:47:45;;;;;;;;;;;409.70;1817.60;;;;;;5015562;28;19952;-77
2022/02/15 10:50:11;;;;;;;;;;;410.00;1740.80;;;;;;5015349;28;19909;-83
2022/02/15 10:52:37;;;;;;;;;;;409.90;1766.40;;;;;;5014979;28;19960;-83
2022/02/15 10:55:03;;;;;;;;;;;410.00;1740.80;;;;;;5037210;28;20011;-85
2022/02/15 10:57:29;;;;;;;;;;;410.20;1766.40;;;;;;5072617;27;19912;-81
2022/02/15 10:59:56;;;;;;;;;;;410.10;1740.80;;;;;;5095360;28;19918;-82
2022/02/15 11:02:25;;;;;;;;;;;410.30;1740.80;;;;;;5094840;28;19955;-81
2022/02/15 11:04:51;;;;;;;;;;;410.50;1715.20;;;;;;5113599;28;19908;-82
2022/02/15 11:07:18;;;;;;;;;;;435.20;1715.20;;;;;;5113080;28;19926;-83
2022/02/15 11:10:02;;;;;;;;;;;435.30;1715.20;;;;;;5113711;28;19961;-82
2022/02/15 11:12:32;;;;;;;;;;;435.50;1612.80;;;;;;5126969;27;19911;-79
2022/02/15 11:15:02;;;;;;;;;;;435.60;1638.40;;;;;;5095364;28;19915;-80
2022/02/15 11:17:28;;;;;;;;;;;435.60;1689.60;;;;;;5093007;28;20016;-79
2022/02/15 11:19:58;;;;;;;;;;;435.70;1638.40;;;;;;5095207;28;19908;-80
2022/02/15 11:22:23;;;;;;;;;;;435.60;1664.00;;;;;;5095819;28;19908;-78
2022/02/15 11:24:49;;;;;;;;;;;435.50;1638.40;;;;;;5095429;28;20002;-78
2022/02/15 11:27:15;;;;;;;;;;;435.60;1638.40;;;;;;5095483;28;20355;-80
2022/02/15 11:29:51;;;;;;;;;;;435.80;1638.40;;;;;;5095395;28;19957;-77
2022/02/15 11:32:31;;;;;;;;;;;460.80;1612.80;;;;;;5094458;28;19926;-79
2022/02/15 11:34:56;;;;;;;;;;;435.90;1587.20;;;;;;5094855;28;19920;-79
2022/02/15 11:37:23;;;;;;;;;;;436.00;1587.20;;;;;;5094861;28;19912;-80
2022/02/15 11:39:59;;;;;;;;;;;461.10;1561.60;;;;;;5095085;28;20275;-79
2022/02/15 11:42:24;;;;;;;;;;;461.10;1587.20;;;;;;5110965;28;19908;-79
2022/02/15 11:44:50;;;;;;;;;;;461.20;1536.00;;;;;;5078869;28;19962;-79
2022/02/15 11:47:17;;;;;;;;;;;461.50;1510.40;;;;;;5108688;28;19912;-78
2022/02/15 11:49:50;;;;;;;;;;;461.50;1484.80;;;;;;5074735;28;19912;-77
2022/02/15 11:52:16;;;;;;;;;;;461.40;1510.40;;;;;;5093073;28;19908;-78
2022/02/15 11:54:42;;;;;;;;;;;461.20;1536.00;;;;;;5108383;28;19908;-79
2022/02/15 11:57:08;;;;;;;;;;;461.40;1536.00;;;;;;5075285;28;19912;-80
2022/02/15 11:59:34;;;;;;;;;;;461.60;1510.40;;;;;;5107934;28;19916;-79
2022/02/15 12:02:00;;;;;;;;;;;461.60;1536.00;;;;;;5093063;28;20659;-80
2022/02/15 12:04:26;;;;;;;;;;;461.70;1484.80;;;;;;5074787;28;19908;-79
2022/02/15 12:06:52;;;;;;;;;;;486.70;1510.40;;;;;;5077412;28;19931;-80
2022/02/15 12:09:24;;;;;;;;;;;461.40;1510.40;;;;;;5079145;28;20260;-77
2022/02/15 12:11:50;;;;;;;;;;;461.20;1536.00;;;;;;5096781;28;19908;-80
2022/02/15 12:14:16;;;;;;;;;;;461.30;1536.00;;;;;;5097134;28;19909;-77
2022/02/15 12:16:46;;;;;;;;;;;461.10;1561.60;;;;;;5078759;28;20003;-77
2022/02/15 12:19:25;;;;;;;;;;;461.60;1536.00;;;;;;5099218;28;19912;-82
2022/02/15 12:21:52;;;;;;;;;;;461.60;1510.40;;;;;;5097205;28;19915;-79
2022/02/15 12:24:18;;;;;;;;;;;461.30;1510.40;;;;;;5097925;28;19922;-80
2022/02/15 12:26:43;;;;;;;;;;;461.40;1536.00;;;;;;5098499;28;19908;-81
2022/02/15 12:29:10;;;;;;;;;;;461.50;1510.40;;;;;;5097831;28;19935;-77
2022/02/15 12:31:36;;;;;;;;;;;461.50;1510.40;;;;;;5116692;28;19919;-80
2022/02/15 12:34:03;;;;;;;;;;;461.30;1510.40;;;;;;5097703;28;19911;-80
2022/02/15 12:36:30;;;;;;;;;;;461.30;1536.00;;;;;;5116035;28;19919;-81
2022/02/15 12:38:55;;;;;;;;;;;461.30;1561.60;;;;;;5097841;28;19912;-81
2022/02/15 12:41:22;;;;;;;;;;;461.30;1536.00;;;;;;5110370;28;19919;-81
2022/02/15 12:43:55;;;;;;;;;;;461.60;1484.80;;;;;;5128953;27;19916;-83
2022/02/15 12:46:20;;;;;;;;;;;461.40;1536.00;;;;;;5097702;28;19919;-81
2022/02/15 12:48:46;;;;;;;;;;;461.30;1510.40;;;;;;5115970;28;19912;-82
2022/02/15 12:51:12;;;;;;;;;;;461.50;1536.00;;;;;;5096791;28;19912;-78
2022/02/15 12:53:37;;;;;;;;;;;486.40;1459.20;;;;;;5097686;28;19943;-78
2022/02/15 12:56:06;;;;;;;;;;;461.70;1510.40;;;;;;5115939;28;19926;-82
2022/02/15 12:58:32;;;;;;;;;;;461.40;1484.80;;;;;;5125821;27;19925;-80
2022/02/15 13:00:59;;;;;;;;;;;461.70;1433.60;;;;;;5097348;28;19916;-81
2022/02/15 13:03:24;;;;;;;;;;;461.60;1459.20;;;;;;5097190;28;19912;-77
2022/02/15 13:05:50;;;;;;;;;;;461.50;1484.80;;;;;;5097365;28;19919;-81
2022/02/15 13:08:16;;;;;;;;;;;461.40;1510.40;;;;;;5100732;28;19973;-80
2022/02/15 13:10:42;;;;;;;;;;;461.40;1510.40;;;;;;5096205;28;20390;-78
2022/02/15 13:13:08;;;;;;;;;;;461.20;1484.80;;;;;;5115049;28;19915;-79
2022/02/15 13:15:34;;;;;;;;;;;461.40;1484.80;;;;;;5115366;28;19934;-82
2022/02/15 13:18:03;;;;;;;;;;;461.60;1433.60;;;;;;5096477;28;19911;-80
2022/02/15 13:20:31;;;;;;;;;;;461.70;1459.20;;;;;;5112258;28;20417;-79
2022/02/15 13:23:01;;;;;;;;;;;461.60;1484.80;;;;;;5096546;28;19919;-78
2022/02/15 13:25:45;;;;;;;;;;;461.40;1484.80;;;;;;5115589;28;20049;-78
2022/02/15 13:28:12;;;;;;;;;;;461.40;1510.40;;;;;;5095329;28;20378;-81
2022/02/15 13:30:38;;;;;;;;;;;461.40;1510.40;;;;;;5097043;28;19923;-80
2022/02/15 13:33:12;;;;;;;;;;;461.40;1510.40;;;;;;5097836;28;19919;-78
2022/02/15 13:35:38;;;;;;;;;;;461.30;1510.40;;;;;;5115727;28;19926;-87
2022/02/15 13:38:06;;;;;;;;;;;461.40;1459.20;;;;;;5097637;28;19908;-77
2022/02/15 13:40:31;;;;;;;;;;;461.30;1484.80;;;;;;5115868;28;19908;-78
2022/02/15 13:42:58;;;;;;;;;;;461.00;1510.40;;;;;;5115851;28;19908;-85